Time;durP1;ratioP1;P1;durP2;ratioP2;P2;SDS_P1;SDS_P2;PMS_P1;PMS_P2;Temp;Humidity;BMP_temperature;BMP_pressure;BME280_temperature;BME280_humidity;BME280_pressure;Samples;Min_cycle;Max_cycle;Signal;HPM_P1;HPM_P2
2023/05/16 00:02:15;;;;;;;3.03;1.20;;;13.80;67.60;;;;;;5029297;28;20041;-46
2023/05/16 00:04:42;;;;;;;1.85;1.00;;;13.80;67.80;;;;;;5023399;28;20045;-50
2023/05/16 00:07:10;;;;;;;4.28;1.65;;;13.80;68.00;;;;;;5029513;28;20042;-47
2023/05/16 00:09:36;;;;;;;3.25;1.15;;;13.80;68.00;;;;;;5029782;28;20037;-47
2023/05/16 00:12:05;;;;;;;4.45;1.40;;;13.80;67.70;;;;;;5030478;28;20055;-48
2023/05/16 00:14:35;;;;;;;4.50;1.80;;;13.80;67.70;;;;;;5028172;28;20052;-48
2023/05/16 00:17:10;;;;;;;2.25;1.17;;;13.80;67.30;;;;;;5029768;28;20052;-50
2023/05/16 00:19:40;;;;;;;8.50;1.88;;;13.80;67.30;;;;;;5028686;28;20049;-49
2023/05/16 00:22:07;;;;;;;2.80;1.50;;;13.80;67.50;;;;;;5028802;28;20053;-49
2023/05/16 00:24:36;;;;;;;5.25;1.58;;;13.80;67.30;;;;;;5025564;28;20053;-46
2023/05/16 00:27:04;;;;;;;2.05;1.10;;;13.80;67.30;;;;;;5033204;28;20048;-48
2023/05/16 00:29:37;;;;;;;3.92;1.90;;;13.80;67.10;;;;;;5011913;28;20073;-49
2023/05/16 00:32:07;;;;;;;4.00;1.55;;;13.80;67.10;;;;;;5011060;28;20046;-49
2023/05/16 00:34:35;;;;;;;2.88;1.55;;;13.80;66.80;;;;;;5002677;28;20042;-48
2023/05/16 00:37:02;;;;;;;3.03;1.70;;;13.80;66.90;;;;;;5011305;28;20088;-49
2023/05/16 00:39:29;;;;;;;1.40;1.27;;;13.70;66.80;;;;;;5024449;28;20095;-47
2023/05/16 00:42:04;;;;;;;4.00;1.73;;;13.70;66.70;;;;;;5005477;28;20049;-49
2023/05/16 00:44:34;;;;;;;4.13;1.95;;;13.70;66.70;;;;;;5010103;28;20045;-50
2023/05/16 00:47:03;;;;;;;5.15;2.33;;;13.70;66.50;;;;;;5029387;28;20067;-50
2023/05/16 00:49:31;;;;;;;4.85;1.75;;;13.70;66.60;;;;;;5011918;28;20045;-49
2023/05/16 00:51:58;;;;;;;4.50;1.52;;;13.70;66.50;;;;;;5026716;28;20409;-50
2023/05/16 00:54:28;;;;;;;9.40;2.28;;;13.60;66.50;;;;;;5028795;28;20045;-48
2023/05/16 00:56:58;;;;;;;5.22;2.00;;;13.60;66.50;;;;;;5006652;28;20068;-48
2023/05/16 00:59:27;;;;;;;5.70;2.35;;;13.60;66.40;;;;;;5028805;28;20678;-48
2023/05/16 01:01:55;;;;;;;8.30;2.20;;;13.60;66.50;;;;;;5043496;28;20414;-46
2023/05/16 01:04:24;;;;;;;5.38;2.00;;;13.60;66.30;;;;;;5028537;28;20041;-49
2023/05/16 01:06:54;;;;;;;4.63;2.33;;;13.60;66.30;;;;;;5031766;28;20091;-47
2023/05/16 01:09:20;;;;;;;3.35;2.03;;;13.50;66.00;;;;;;5032603;28;20044;-49
2023/05/16 01:11:51;;;;;;;4.63;1.80;;;13.50;66.00;;;;;;5014144;28;20517;-49
2023/05/16 01:14:47;;;;;;;3.88;1.95;;;13.50;66.00;;;;;;5047864;28;20124;-46
2023/05/16 01:17:31;;;;;;;6.32;1.95;;;13.50;66.40;;;;;;5007639;28;20406;-46
2023/05/16 01:20:14;;;;;;;11.23;3.42;;;13.40;66.00;;;;;;5013577;28;20049;-48
2023/05/16 01:22:50;;;;;;;7.03;2.70;;;13.40;65.80;;;;;;5035009;28;20437;-46
2023/05/16 01:25:38;;;;;;;8.23;2.33;;;13.40;65.60;;;;;;5044293;28;20049;-50
2023/05/16 01:28:06;;;;;;;5.88;2.63;;;13.40;66.20;;;;;;5008076;28;20052;-49
2023/05/16 01:30:38;;;;;;;9.00;2.47;;;13.40;65.70;;;;;;5012922;28;20422;-45
2023/05/16 01:33:07;;;;;;;7.10;2.47;;;13.30;65.80;;;;;;5014305;28;20148;-50
2023/05/16 01:35:58;;;;;;;9.23;2.65;;;13.30;65.50;;;;;;5007507;28;20056;-45
2023/05/16 01:38:39;;;;;;;8.47;2.40;;;13.30;65.70;;;;;;5033074;28;20041;-52
2023/05/16 01:41:17;;;;;;;9.52;2.90;;;13.30;65.70;;;;;;5021509;28;20049;-49
2023/05/16 01:43:48;;;;;;;7.88;2.63;;;13.30;65.90;;;;;;5028740;28;20053;-49
2023/05/16 01:46:20;;;;;;;9.45;2.88;;;13.20;65.70;;;;;;5031743;28;20377;-50
2023/05/16 01:49:18;;;;;;;8.57;2.97;;;13.20;65.40;;;;;;5032634;28;20041;-53
2023/05/16 01:51:51;;;;;;;6.53;2.55;;;13.20;65.80;;;;;;5025897;28;20065;-52
2023/05/16 01:54:25;;;;;;;6.10;2.80;;;13.20;65.20;;;;;;5027382;28;20053;-52
2023/05/16 01:56:56;;;;;;;6.03;2.50;;;13.20;65.20;;;;;;5017287;28;20513;-50
2023/05/16 01:59:23;;;;;;;6.93;2.33;;;13.20;65.20;;;;;;5013811;28;20505;-52
2023/05/16 02:01:55;;;;;;;8.20;2.85;;;13.10;65.10;;;;;;5013355;28;20042;-52
2023/05/16 02:04:25;;;;;;;5.72;2.40;;;13.10;65.00;;;;;;5030796;28;20042;-50
2023/05/16 02:06:52;;;;;;;9.88;3.08;;;13.10;65.00;;;;;;5045780;28;20087;-50
2023/05/16 02:09:20;;;;;;;4.35;2.40;;;13.10;64.90;;;;;;5031577;28;20623;-51
2023/05/16 02:11:50;;;;;;;12.60;3.30;;;13.10;64.80;;;;;;5013007;28;20052;-50
2023/05/16 02:14:28;;;;;;;9.65;3.13;;;13.10;64.80;;;;;;5043605;28;20041;-50
2023/05/16 02:16:56;;;;;;;9.35;2.30;;;13.10;64.70;;;;;;5012777;28;20071;-51
2023/05/16 02:19:28;;;;;;;4.80;2.10;;;13.00;64.60;;;;;;5012646;28;20053;-52
2023/05/16 02:21:57;;;;;;;10.82;3.25;;;13.00;64.50;;;;;;5009544;28;20394;-49
2023/05/16 02:24:24;;;;;;;11.60;3.10;;;12.90;64.30;;;;;;5027414;28;20473;-48
2023/05/16 02:26:54;;;;;;;10.32;3.28;;;12.90;64.30;;;;;;5013987;28;20525;-52
2023/05/16 02:29:21;;;;;;;7.07;2.55;;;12.90;64.40;;;;;;5012230;28;20509;-50
2023/05/16 02:31:47;;;;;;;6.80;1.83;;;12.80;64.30;;;;;;5030887;28;20412;-51
2023/05/16 02:34:21;;;;;;;4.60;1.92;;;12.80;64.20;;;;;;5027213;28;20033;-52
2023/05/16 02:36:51;;;;;;;9.23;2.80;;;12.80;64.20;;;;;;5011470;28;20064;-52
2023/05/16 02:39:17;;;;;;;10.75;3.33;;;12.70;64.10;;;;;;5031009;28;20053;-49
2023/05/16 02:41:49;;;;;;;8.93;2.35;;;12.70;64.30;;;;;;5030720;28;20048;-53
2023/05/16 02:44:15;;;;;;;7.95;2.65;;;12.60;64.30;;;;;;5027861;28;20044;-52
2023/05/16 02:46:44;;;;;;;7.75;2.42;;;12.60;64.20;;;;;;5033686;28;20131;-48
2023/05/16 02:49:10;;;;;;;9.40;2.35;;;12.50;64.20;;;;;;5012602;28;20096;-51
2023/05/16 02:51:42;;;;;;;8.38;2.30;;;12.50;64.30;;;;;;5025288;28;20524;-50
2023/05/16 02:54:13;;;;;;;8.00;2.80;;;12.50;64.30;;;;;;5021793;28;20052;-51
2023/05/16 02:56:39;;;;;;;8.30;2.33;;;12.40;64.30;;;;;;5035333;28;20041;-52
2023/05/16 02:59:06;;;;;;;8.48;2.70;;;12.40;64.30;;;;;;5012139;28;20064;-53
2023/05/16 03:01:37;;;;;;;7.97;2.15;;;12.30;64.30;;;;;;5030165;28;20041;-49
2023/05/16 03:04:05;;;;;;;9.45;2.55;;;12.40;64.40;;;;;;5007229;28;20053;-49
2023/05/16 03:06:36;;;;;;;5.43;2.33;;;12.30;64.40;;;;;;5029994;28;20044;-48
2023/05/16 03:09:03;;;;;;;5.72;2.35;;;12.20;64.40;;;;;;5013360;28;20057;-48
2023/05/16 03:11:30;;;;;;;7.07;1.90;;;12.20;64.40;;;;;;5030063;28;20041;-49
2023/05/16 03:13:58;;;;;;;5.93;2.17;;;12.20;64.50;;;;;;5005119;28;20050;-49
2023/05/16 03:16:27;;;;;;;11.95;2.75;;;12.20;64.50;;;;;;5025539;28;20048;-52
2023/05/16 03:18:57;;;;;;;8.05;2.15;;;12.10;64.50;;;;;;5030578;28;20049;-50
2023/05/16 03:21:23;;;;;;;9.18;2.20;;;12.10;64.70;;;;;;5029799;28;20509;-52
2023/05/16 03:23:50;;;;;;;6.03;2.13;;;12.00;64.70;;;;;;5030006;28;20549;-50
2023/05/16 03:26:24;;;;;;;8.95;2.17;;;12.00;64.80;;;;;;5033176;28;20111;-53
2023/05/16 03:28:51;;;;;;;9.10;2.55;;;12.00;64.80;;;;;;5032078;28;20044;-49
2023/05/16 03:31:20;;;;;;;8.40;2.42;;;12.00;64.80;;;;;;5028322;28;20034;-52
2023/05/16 03:33:46;;;;;;;5.82;1.95;;;11.90;64.70;;;;;;5032855;28;20042;-51
2023/05/16 03:36:13;;;;;;;6.22;2.22;;;11.90;64.80;;;;;;5030156;28;20099;-52
2023/05/16 03:38:40;;;;;;;7.80;2.50;;;11.90;64.80;;;;;;5027091;28;20067;-52
2023/05/16 03:41:11;;;;;;;9.15;2.85;;;11.80;64.80;;;;;;5010935;28;20148;-53
2023/05/16 03:43:48;;;;;;;8.30;2.35;;;11.80;64.80;;;;;;5035518;28;20063;-52
2023/05/16 03:46:15;;;;;;;12.73;2.92;;;11.80;64.80;;;;;;5029856;28;20038;-50
2023/05/16 03:48:44;;;;;;;5.63;2.75;;;11.80;64.80;;;;;;5030955;28;20125;-49
2023/05/16 03:51:13;;;;;;;6.60;2.20;;;11.70;64.80;;;;;;5026865;28;20048;-52
2023/05/16 03:53:42;;;;;;;8.30;2.40;;;11.70;64.90;;;;;;5027727;28;20053;-49
2023/05/16 03:56:14;;;;;;;5.78;2.05;;;11.70;65.00;;;;;;5031817;28;20512;-51
2023/05/16 03:58:43;;;;;;;7.82;2.05;;;11.60;64.90;;;;;;5032167;28;20045;-52
2023/05/16 04:01:11;;;;;;;9.95;2.50;;;11.60;65.00;;;;;;5029829;28;20049;-49
2023/05/16 04:03:40;;;;;;;7.97;1.73;;;11.60;65.00;;;;;;5029911;28;20106;-49
2023/05/16 04:06:07;;;;;;;6.50;2.13;;;11.60;65.20;;;;;;5030531;28;20041;-49
2023/05/16 04:08:39;;;;;;;9.25;2.40;;;11.60;65.20;;;;;;5029167;28;20038;-48
2023/05/16 04:11:06;;;;;;;5.38;2.17;;;11.60;65.20;;;;;;5027290;28;20045;-53
2023/05/16 04:13:33;;;;;;;6.35;2.10;;;11.50;65.30;;;;;;5032981;28;20045;-53
2023/05/16 04:16:05;;;;;;;8.80;2.88;;;11.50;65.60;;;;;;5021447;28;20080;-51
2023/05/16 04:18:31;;;;;;;10.50;2.65;;;11.50;65.70;;;;;;5030236;28;20488;-48
2023/05/16 04:21:01;;;;;;;4.50;2.70;;;11.50;65.70;;;;;;5023006;28;20064;-52
2023/05/16 04:23:32;;;;;;;9.82;2.45;;;11.50;65.90;;;;;;5028705;28;20049;-52
2023/05/16 04:26:03;;;;;;;7.13;2.15;;;11.60;66.10;;;;;;5029137;28;20088;-50
2023/05/16 04:28:32;;;;;;;6.32;2.55;;;11.60;66.20;;;;;;5029399;28;20069;-48
2023/05/16 04:31:00;;;;;;;5.30;2.58;;;11.60;66.20;;;;;;5027673;28;20045;-53
2023/05/16 04:33:30;;;;;;;5.78;2.20;;;11.60;66.20;;;;;;5024047;28;20041;-49
2023/05/16 04:35:57;;;;;;;10.18;2.65;;;11.70;66.30;;;;;;5028378;28;20099;-49
2023/05/16 04:38:24;;;;;;;5.10;2.65;;;11.70;66.20;;;;;;5033268;28;20045;-48
2023/05/16 04:40:53;;;;;;;9.23;3.40;;;11.70;66.10;;;;;;5015839;28;20052;-49
2023/05/16 04:43:22;;;;;;;6.13;2.67;;;11.70;66.00;;;;;;5031923;28;20053;-51
2023/05/16 04:45:52;;;;;;;8.05;2.63;;;11.70;66.00;;;;;;5034026;28;20552;-51
2023/05/16 04:48:21;;;;;;;7.38;2.75;;;11.70;66.00;;;;;;5033102;28;20033;-52
2023/05/16 04:50:48;;;;;;;9.75;2.97;;;11.70;66.00;;;;;;5029420;28;20052;-51
2023/05/16 04:53:15;;;;;;;8.50;3.17;;;11.80;66.40;;;;;;5034703;28;20505;-50
2023/05/16 04:55:44;;;;;;;7.05;3.10;;;11.80;66.60;;;;;;5032722;28;20051;-48
2023/05/16 04:58:11;;;;;;;6.13;2.67;;;11.80;66.70;;;;;;5036094;28;20501;-50
2023/05/16 05:00:41;;;;;;;10.77;3.13;;;11.80;66.70;;;;;;5032190;28;20073;-49
2023/05/16 05:03:10;;;;;;;7.93;3.30;;;11.90;66.80;;;;;;5032857;28;20053;-49
2023/05/16 05:05:39;;;;;;;7.47;3.47;;;11.90;66.90;;;;;;5027026;28;20046;-48
2023/05/16 05:08:06;;;;;;;7.63;2.60;;;11.90;66.80;;;;;;5034034;28;20044;-52
2023/05/16 05:10:33;;;;;;;8.68;2.88;;;12.00;66.90;;;;;;5032341;28;20045;-48
2023/05/16 05:13:00;;;;;;;9.43;2.95;;;12.00;67.00;;;;;;5034361;28;20057;-49
2023/05/16 05:15:30;;;;;;;7.30;2.83;;;12.10;66.90;;;;;;5031813;28;20054;-53
2023/05/16 05:17:59;;;;;;;5.95;3.53;;;12.10;66.70;;;;;;5033571;28;20043;-52
2023/05/16 05:20:28;;;;;;;8.60;2.65;;;12.10;66.70;;;;;;5031657;28;20053;-48
2023/05/16 05:22:55;;;;;;;8.15;3.05;;;12.10;66.60;;;;;;5035557;28;20049;-52
2023/05/16 05:25:22;;;;;;;7.68;2.60;;;12.20;66.60;;;;;;5029643;28;20476;-51
2023/05/16 05:27:49;;;;;;;9.05;2.83;;;12.10;66.50;;;;;;5032298;28;20038;-51
2023/05/16 05:30:15;;;;;;;11.27;2.40;;;12.20;66.70;;;;;;5031452;28;20057;-52
2023/05/16 05:32:45;;;;;;;8.00;2.53;;;12.20;66.60;;;;;;5027079;28;20046;-49
2023/05/16 05:35:11;;;;;;;9.55;2.30;;;12.20;66.50;;;;;;5031264;28;20148;-51
2023/05/16 05:37:45;;;;;;;8.63;2.72;;;12.30;66.70;;;;;;5031247;28;20059;-51
2023/05/16 05:40:12;;;;;;;6.28;2.65;;;12.30;66.60;;;;;;5028045;28;20063;-49
2023/05/16 05:42:38;;;;;;;7.15;2.88;;;12.40;66.70;;;;;;5029309;28;20099;-51
2023/05/16 05:45:07;;;;;;;5.28;2.50;;;12.40;66.50;;;;;;5037926;28;20511;-51
2023/05/16 05:47:39;;;;;;;13.35;3.58;;;12.50;66.50;;;;;;5034243;28;20124;-50
2023/05/16 05:50:12;;;;;;;8.27;2.50;;;12.60;66.30;;;;;;5021973;28;20521;-50
2023/05/16 05:52:39;;;;;;;5.97;2.28;;;12.60;66.40;;;;;;5029607;28;20108;-52
2023/05/16 05:55:06;;;;;;;8.00;2.22;;;12.70;66.70;;;;;;5029195;28;20050;-51
2023/05/16 05:57:32;;;;;;;6.60;1.95;;;12.80;66.60;;;;;;5030765;28;20053;-50
2023/05/16 05:59:59;;;;;;;6.85;2.05;;;12.80;66.40;;;;;;5028952;28;20663;-49
2023/05/16 06:02:35;;;;;;;6.68;2.80;;;13.00;66.10;;;;;;5034002;28;20509;-49
2023/05/16 06:05:02;;;;;;;11.05;2.83;;;13.10;65.90;;;;;;5025538;28;20055;-53
2023/05/16 06:07:33;;;;;;;7.55;2.88;;;13.20;65.70;;;;;;5032558;28;20041;-51
2023/05/16 06:10:03;;;;;;;10.63;2.63;;;13.20;65.40;;;;;;5021664;28;20033;-49
2023/05/16 06:12:33;;;;;;;6.93;2.97;;;13.20;65.10;;;;;;5029026;28;20055;-52
2023/05/16 06:14:59;;;;;;;6.93;2.35;;;13.30;65.00;;;;;;5033652;28;20043;-51
2023/05/16 06:17:28;;;;;;;10.18;3.08;;;13.30;65.10;;;;;;5032246;28;20053;-51
2023/05/16 06:19:55;;;;;;;5.43;2.03;;;13.30;65.10;;;;;;5031971;28;20041;-52
2023/05/16 06:22:22;;;;;;;6.88;2.05;;;13.30;65.00;;;;;;5031330;28;20076;-52
2023/05/16 06:24:57;;;;;;;8.07;2.28;;;13.40;64.90;;;;;;5030688;28;20390;-50
2023/05/16 06:27:28;;;;;;;6.60;2.53;;;13.40;65.00;;;;;;5038421;28;20045;-51
2023/05/16 06:30:02;;;;;;;8.55;2.42;;;13.50;64.80;;;;;;5031191;28;20061;-49
2023/05/16 06:32:29;;;;;;;6.10;2.30;;;13.50;64.40;;;;;;5027513;28;20405;-52
2023/05/16 06:34:56;;;;;;;6.18;2.42;;;13.50;64.30;;;;;;5031407;28;20060;-52
2023/05/16 06:37:23;;;;;;;6.30;2.33;;;13.50;64.10;;;;;;5031194;28;20041;-53
2023/05/16 06:39:49;;;;;;;7.22;3.53;;;13.50;63.90;;;;;;5031548;28;20057;-49
2023/05/16 06:42:22;;;;;;;5.40;2.55;;;13.50;64.10;;;;;;5023803;28;20056;-52
2023/05/16 06:44:53;;;;;;;5.70;2.13;;;13.50;64.00;;;;;;5027425;28;20052;-53
2023/05/16 06:47:23;;;;;;;5.05;1.92;;;13.40;63.80;;;;;;5024993;28;20096;-52
2023/05/16 06:49:53;;;;;;;5.35;2.40;;;13.50;63.80;;;;;;5031075;28;20044;-53
2023/05/16 06:52:24;;;;;;;5.53;2.03;;;13.50;64.30;;;;;;5029647;28;20041;-50
2023/05/16 06:54:53;;;;;;;8.60;3.03;;;13.50;64.40;;;;;;5025356;28;20379;-50
2023/05/16 06:57:20;;;;;;;9.63;2.85;;;13.60;64.00;;;;;;5035602;28;20069;-51
2023/05/16 06:59:49;;;;;;;6.78;2.10;;;13.70;64.10;;;;;;5031090;28;20080;-53
2023/05/16 07:02:16;;;;;;;12.50;2.60;;;13.80;63.40;;;;;;5030599;28;20160;-52
2023/05/16 07:04:42;;;;;;;8.85;2.00;;;13.90;63.00;;;;;;5031095;28;20042;-48
2023/05/16 07:07:09;;;;;;;5.57;2.28;;;13.90;62.30;;;;;;5030033;28;20445;-51
2023/05/16 07:09:38;;;;;;;8.85;2.17;;;14.00;62.00;;;;;;5031365;28;20100;-49
2023/05/16 07:12:07;;;;;;;7.70;2.35;;;14.00;62.30;;;;;;5029127;28;20071;-50
2023/05/16 07:14:36;;;;;;;6.60;2.83;;;14.00;62.00;;;;;;5033231;28;20482;-51
2023/05/16 07:17:05;;;;;;;4.53;1.83;;;14.10;62.00;;;;;;5022844;28;20476;-49
2023/05/16 07:19:36;;;;;;;7.32;1.75;;;14.00;61.80;;;;;;5031092;28;20073;-51
2023/05/16 07:22:04;;;;;;;9.98;2.67;;;14.10;61.70;;;;;;5032123;28;20049;-49
2023/05/16 07:24:35;;;;;;;7.55;2.40;;;14.10;62.00;;;;;;5026895;28;20061;-51
2023/05/16 07:27:01;;;;;;;5.28;1.80;;;14.20;61.60;;;;;;5033646;28;20128;-49
2023/05/16 07:29:31;;;;;;;5.70;1.50;;;14.20;61.60;;;;;;5030756;28;20049;-50
2023/05/16 07:31:58;;;;;;;5.30;2.28;;;14.20;61.50;;;;;;5024151;28;20048;-51
2023/05/16 07:34:27;;;;;;;5.55;1.75;;;14.20;61.20;;;;;;5031978;28;20527;-49
2023/05/16 07:36:54;;;;;;;6.65;2.10;;;14.20;61.60;;;;;;5030544;28;20057;-49
2023/05/16 07:39:21;;;;;;;4.85;2.10;;;14.20;61.50;;;;;;5029224;28;20080;-49
2023/05/16 07:41:49;;;;;;;5.45;1.70;;;14.30;61.40;;;;;;5032635;28;20059;-49
2023/05/16 07:44:15;;;;;;;6.10;2.22;;;14.30;61.50;;;;;;5028812;28;20056;-48
2023/05/16 07:46:43;;;;;;;4.95;1.58;;;14.30;61.00;;;;;;5029172;28;20068;-48
2023/05/16 07:49:11;;;;;;;6.60;2.13;;;14.30;60.60;;;;;;5024925;28;20095;-50
2023/05/16 07:51:37;;;;;;;4.70;1.77;;;14.30;60.90;;;;;;5029023;28;20112;-53
2023/05/16 07:54:04;;;;;;;5.18;2.08;;;14.30;60.50;;;;;;5028565;28;20049;-53
2023/05/16 07:56:33;;;;;;;7.03;2.08;;;14.40;60.40;;;;;;5034634;28;20087;-52
2023/05/16 07:59:00;;;;;;;5.25;1.52;;;14.40;60.30;;;;;;5030569;28;20507;-49
2023/05/16 08:01:30;;;;;;;8.30;2.08;;;14.40;59.90;;;;;;5029348;28;20163;-48
2023/05/16 08:03:59;;;;;;;5.53;1.40;;;14.40;59.70;;;;;;5024465;28;20502;-50
2023/05/16 08:06:26;;;;;;;6.95;1.65;;;14.40;59.40;;;;;;5011284;28;20052;-51
2023/05/16 08:08:52;;;;;;;3.90;1.52;;;14.30;59.70;;;;;;5030437;28;20121;-48
2023/05/16 08:11:26;;;;;;;3.15;1.40;;;14.30;60.00;;;;;;5028488;28;20529;-51
2023/05/16 08:13:54;;;;;;;5.82;1.83;;;14.40;59.40;;;;;;5023906;28;20116;-53
2023/05/16 08:16:21;;;;;;;7.32;2.47;;;14.20;59.60;;;;;;5029263;28;20581;-52
2023/05/16 08:18:48;;;;;;;5.90;1.92;;;14.40;59.10;;;;;;5030268;28;20049;-50
2023/05/16 08:21:15;;;;;;;6.65;2.05;;;14.50;58.60;;;;;;5027422;28;20072;-52
2023/05/16 08:23:45;;;;;;;5.10;1.80;;;14.50;58.10;;;;;;5031430;28;20115;-51
2023/05/16 08:26:18;;;;;;;7.43;1.35;;;14.50;58.20;;;;;;5030867;28;20520;-51
2023/05/16 08:28:51;;;;;;;4.82;1.60;;;14.50;57.90;;;;;;5031694;28;20524;-49
2023/05/16 08:31:20;;;;;;;6.03;1.50;;;14.50;57.90;;;;;;5025267;28;20564;-53
2023/05/16 08:33:47;;;;;;;5.32;1.65;;;14.50;58.10;;;;;;5023883;28;20095;-50
2023/05/16 08:36:18;;;;;;;3.60;1.17;;;14.50;58.20;;;;;;5029726;28;20159;-51
2023/05/16 08:38:45;;;;;;;3.30;1.70;;;14.50;57.90;;;;;;5012694;28;20125;-51
2023/05/16 08:41:14;;;;;;;2.67;1.20;;;14.60;57.60;;;;;;5028028;28;20044;-52
2023/05/16 08:43:45;;;;;;;2.50;1.00;;;14.60;58.30;;;;;;5028370;28;20057;-52
2023/05/16 08:46:25;;;;;;;6.45;1.45;;;14.80;59.00;;;;;;5026543;28;20099;-49
2023/05/16 08:49:06;;;;;;;5.43;1.40;;;14.90;58.10;;;;;;5029891;28;20045;-50
2023/05/16 08:51:36;;;;;;;2.75;1.50;;;15.10;58.00;;;;;;5028104;28;20053;-52
2023/05/16 08:54:10;;;;;;;3.88;1.73;;;15.20;57.50;;;;;;5023014;28;20087;-52
2023/05/16 08:56:37;;;;;;;6.28;1.40;;;15.30;57.00;;;;;;5035052;28;20120;-49
2023/05/16 08:59:08;;;;;;;6.13;1.33;;;15.40;56.50;;;;;;5022590;28;20472;-50
2023/05/16 09:01:37;;;;;;;4.55;1.80;;;15.40;56.10;;;;;;5028758;28;20053;-53
2023/05/16 09:04:09;;;;;;;4.03;1.10;;;15.40;55.70;;;;;;5026401;28;20045;-50
2023/05/16 09:06:36;;;;;;;8.25;2.10;;;15.40;55.50;;;;;;5031686;28;20129;-52
2023/05/16 09:09:06;;;;;;;5.55;2.05;;;15.40;55.90;;;;;;5025146;28;20163;-49
2023/05/16 09:11:34;;;;;;;5.22;1.30;;;15.40;55.80;;;;;;5028807;28;20153;-49
2023/05/16 09:14:04;;;;;;;4.72;1.23;;;15.30;55.60;;;;;;5022529;28;20046;-53
2023/05/16 09:16:33;;;;;;;3.08;1.20;;;15.30;55.60;;;;;;5028288;28;20065;-53
2023/05/16 09:19:03;;;;;;;5.57;1.13;;;15.40;55.30;;;;;;5027927;28;20459;-51
2023/05/16 09:21:35;;;;;;;3.42;0.80;;;15.40;56.20;;;;;;5026982;28;20045;-49
2023/05/16 09:24:06;;;;;;;3.00;0.90;;;15.40;55.50;;;;;;5032624;28;20116;-50
2023/05/16 09:26:35;;;;;;;3.60;1.00;;;15.50;55.00;;;;;;5040249;28;20509;-53
2023/05/16 09:29:12;;;;;;;4.00;1.02;;;15.60;54.30;;;;;;5031374;28;20049;-52
2023/05/16 09:31:41;;;;;;;2.53;1.20;;;15.70;54.00;;;;;;5026054;28;20069;-50
2023/05/16 09:34:14;;;;;;;4.65;1.40;;;15.70;54.20;;;;;;5027808;28;20462;-51
2023/05/16 09:36:42;;;;;;;3.40;1.40;;;15.80;53.90;;;;;;5033933;28;20049;-50
2023/05/16 09:39:14;;;;;;;2.42;1.05;;;15.90;53.70;;;;;;5032484;28;20049;-52
2023/05/16 09:41:42;;;;;;;2.25;0.88;;;16.00;53.60;;;;;;5030429;28;20065;-52
2023/05/16 09:44:11;;;;;;;5.47;1.00;;;16.20;54.50;;;;;;5029439;28;20420;-53
2023/05/16 09:46:39;;;;;;;3.60;1.13;;;16.20;53.50;;;;;;5032107;28;20520;-53
2023/05/16 09:49:05;;;;;;;4.75;1.08;;;16.30;53.10;;;;;;5031870;28;20049;-51
2023/05/16 09:51:33;;;;;;;2.35;0.98;;;16.40;53.10;;;;;;5032503;28;20045;-52
2023/05/16 09:54:06;;;;;;;2.47;0.98;;;16.40;52.50;;;;;;5030780;28;20422;-49
2023/05/16 09:56:46;;;;;;;;;;;16.40;52.50;;;;;;5035445;28;20112;-52
2023/05/16 09:59:17;;;;;;;1.23;0.80;;;16.50;53.20;;;;;;5031358;28;20015;-53
2023/05/16 10:01:47;;;;;;;1.65;1.02;;;16.50;51.90;;;;;;5031498;28;20094;-53
2023/05/16 10:04:16;;;;;;;2.80;1.08;;;16.40;51.00;;;;;;5028982;28;20050;-51
2023/05/16 10:06:45;;;;;;;1.02;0.70;;;16.40;51.30;;;;;;5036179;28;20077;-52
2023/05/16 10:09:12;;;;;;;3.95;0.95;;;16.40;51.30;;;;;;5031879;28;20037;-50
2023/05/16 10:11:42;;;;;;;2.88;0.70;;;16.40;51.40;;;;;;5013395;28;20037;-49
2023/05/16 10:14:15;;;;;;;3.70;0.80;;;16.50;52.10;;;;;;5028728;28;20120;-49
2023/05/16 10:16:48;;;;;;;2.72;0.60;;;16.60;51.10;;;;;;5029691;28;20041;-51
2023/05/16 10:19:16;;;;;;;2.40;0.45;;;16.70;51.20;;;;;;5031167;28;20054;-50
2023/05/16 10:21:51;;;;;;;2.67;0.88;;;16.70;51.00;;;;;;5032297;28;20041;-52
2023/05/16 10:24:25;;;;;;;2.92;0.77;;;16.80;51.20;;;;;;5029134;28;20080;-52
2023/05/16 10:26:53;;;;;;;3.05;0.80;;;16.80;50.90;;;;;;5035688;28;20120;-51
2023/05/16 10:29:25;;;;;;;2.95;1.05;;;16.90;51.00;;;;;;5030754;28;20436;-49
2023/05/16 10:31:52;;;;;;;2.75;0.63;;;16.90;50.70;;;;;;5043763;23;20101;-48
2023/05/16 10:34:19;;;;;;;1.88;0.60;;;17.00;50.80;;;;;;5055115;28;20437;-47
2023/05/16 10:36:49;;;;;;;2.30;0.80;;;17.00;50.00;;;;;;5060993;28;20094;-50
2023/05/16 10:39:16;;;;;;;3.83;0.70;;;17.00;49.30;;;;;;5062592;28;20116;-49
2023/05/16 10:41:43;;;;;;;4.88;1.05;;;16.90;49.80;;;;;;5054219;28;20123;-49
2023/05/16 10:44:16;;;;;;;5.07;1.02;;;16.90;49.80;;;;;;5046659;28;20099;-47
2023/05/16 10:46:45;;;;;;;2.97;0.93;;;16.80;49.80;;;;;;5046756;28;20104;-47
2023/05/16 10:49:24;;;;;;;3.58;0.90;;;16.80;49.20;;;;;;5048092;28;20034;-49
2023/05/16 10:52:07;;;;;;;1.42;0.60;;;16.80;49.20;;;;;;5047487;28;20057;-48
2023/05/16 10:54:49;;;;;;;4.57;1.20;;;16.90;49.50;;;;;;5043290;28;20040;-48
2023/05/16 10:57:22;;;;;;;6.35;1.25;;;17.10;49.50;;;;;;5046828;28;20124;-48
2023/05/16 10:59:50;;;;;;;3.03;0.65;;;17.10;49.40;;;;;;5037322;28;20117;-48
2023/05/16 11:02:38;;;;;;;1.02;0.60;;;17.20;48.60;;;;;;5045488;28;20124;-48
2023/05/16 11:05:19;;;;;;;2.85;0.90;;;17.30;47.40;;;;;;5042026;28;20051;-50
2023/05/16 11:08:03;;;;;;;3.90;0.85;;;17.20;47.60;;;;;;5053321;28;20068;-52
2023/05/16 11:10:33;;;;;;;2.97;0.75;;;17.20;47.90;;;;;;5042145;28;20048;-49
2023/05/16 11:13:06;;;;;;;3.15;0.77;;;17.10;48.00;;;;;;5038685;28;20041;-53
2023/05/16 11:15:34;;;;;;;2.70;0.70;;;17.00;48.60;;;;;;5044413;28;20049;-50
2023/05/16 11:18:06;;;;;;;1.13;0.82;;;17.00;49.90;;;;;;5050705;28;20040;-53
2023/05/16 11:20:38;;;;;;;2.65;0.65;;;17.00;49.60;;;;;;5044613;28;20055;-53
2023/05/16 11:23:15;;;;;;;1.42;0.50;;;17.10;49.30;;;;;;5049120;28;20112;-49
2023/05/16 11:25:44;;;;;;;4.20;0.60;;;17.10;48.10;;;;;;5047285;28;20040;-50
2023/05/16 11:28:12;;;;;;;1.95;0.50;;;17.20;49.00;;;;;;5038843;28;20044;-52
2023/05/16 11:30:46;;;;;;;1.85;0.40;;;17.30;47.10;;;;;;5031208;28;20124;-49
2023/05/16 11:33:13;;;;;;;1.08;0.45;;;17.30;45.90;;;;;;5041905;28;20061;-51
2023/05/16 11:35:43;;;;;;;1.40;0.40;;;17.30;46.60;;;;;;5041400;28;20060;-48
2023/05/16 11:38:15;;;;;;;5.60;0.70;;;17.30;47.00;;;;;;5050351;28;20045;-49
2023/05/16 11:40:43;;;;;;;0.57;0.38;;;17.40;45.70;;;;;;5041541;28;20116;-51
2023/05/16 11:43:19;;;;;;;0.90;0.30;;;17.30;45.30;;;;;;5039227;28;20469;-49
2023/05/16 11:45:56;;;;;;;1.05;0.40;;;17.40;45.00;;;;;;5040669;28;20521;-48
2023/05/16 11:48:24;;;;;;;2.08;0.52;;;17.40;44.80;;;;;;5030137;28;20112;-49
2023/05/16 11:51:02;;;;;;;0.95;0.40;;;17.40;45.20;;;;;;5043428;28;20052;-48
2023/05/16 11:53:28;;;;;;;2.10;0.90;;;17.40;44.10;;;;;;5040442;28;20061;-51
2023/05/16 11:55:55;;;;;;;1.23;0.52;;;17.50;45.20;;;;;;5047658;28;20112;-50
2023/05/16 11:58:24;;;;;;;1.73;0.50;;;17.50;44.80;;;;;;5044132;28;20045;-49
2023/05/16 12:00:54;;;;;;;2.50;0.60;;;17.50;45.30;;;;;;5046536;28;20124;-48
2023/05/16 12:03:22;;;;;;;1.83;0.30;;;17.60;45.30;;;;;;5042086;28;20517;-48
2023/05/16 12:05:53;;;;;;;1.83;0.60;;;17.60;46.30;;;;;;5044181;28;20123;-52
2023/05/16 12:08:21;;;;;;;2.10;0.45;;;17.70;45.90;;;;;;5033590;28;20120;-48
2023/05/16 12:10:51;;;;;;;3.60;1.20;;;17.80;45.40;;;;;;5041065;28;20420;-51
2023/05/16 12:13:20;;;;;;;3.08;0.68;;;18.00;45.00;;;;;;5043848;28;20120;-52
2023/05/16 12:15:51;;;;;;;2.03;0.50;;;18.00;45.10;;;;;;5045176;28;20125;-52
2023/05/16 12:18:19;;;;;;;3.75;0.60;;;18.10;45.60;;;;;;5038672;28;20037;-51
2023/05/16 12:20:58;;;;;;;1.98;0.55;;;18.20;46.40;;;;;;5043588;28;20565;-52
2023/05/16 12:23:25;;;;;;;2.35;0.95;;;18.30;45.00;;;;;;5049933;28;20060;-49
2023/05/16 12:25:56;;;;;;;1.90;0.40;;;18.30;45.60;;;;;;5047522;28;20102;-49
2023/05/16 12:28:25;;;;;;;4.22;1.00;;;18.40;45.70;;;;;;5036029;28;20109;-48
2023/05/16 12:30:53;;;;;;;2.42;0.57;;;18.50;45.00;;;;;;5045688;28;20529;-48
2023/05/16 12:33:20;;;;;;;1.95;0.65;;;18.60;44.80;;;;;;5044812;28;20568;-50
2023/05/16 12:35:55;;;;;;;3.58;0.80;;;18.70;43.90;;;;;;5032497;28;20037;-50
2023/05/16 12:38:25;;;;;;;2.42;1.00;;;18.70;42.80;;;;;;5049377;28;20493;-51
2023/05/16 12:40:57;;;;;;;2.95;0.60;;;18.70;42.80;;;;;;5029121;28;20051;-50
2023/05/16 12:43:24;;;;;;;1.75;0.57;;;18.70;42.60;;;;;;5034271;28;20241;-49
2023/05/16 12:45:57;;;;;;;2.47;0.70;;;18.60;43.60;;;;;;5040114;28;20478;-49
2023/05/16 12:48:35;;;;;;;4.82;0.90;;;18.60;43.60;;;;;;5049194;28;20083;-52
2023/05/16 12:51:20;;;;;;;2.75;0.98;;;18.50;44.00;;;;;;5041199;28;20045;-48
2023/05/16 12:53:48;;;;;;;1.52;0.77;;;18.50;43.50;;;;;;5039870;28;20560;-49
2023/05/16 12:56:44;;;;;;;1.58;0.50;;;18.50;44.70;;;;;;5045794;28;20107;-49
2023/05/16 12:59:13;;;;;;;3.17;0.80;;;18.60;44.60;;;;;;5047888;28;20144;-48
2023/05/16 13:01:45;;;;;;;3.15;0.93;;;18.60;44.80;;;;;;5040460;28;20071;-50